x

Lahaina / West Maui Weather Station

5:50pm - Mon 20th Apr 2015 All times are HST. -10 hours from GMT.

  • Wind
    12mph, 23mph gusts
  • 空気 Temp 73°f
  • Sea Pressure 1017.6mb
  • Lahaina / West Maui
  • Lahaina / West Maui

More Historic Weather Station data

Upgrade to MSW Pro to gain access to the past 30 days of data for over 8000 Wavebouys and Weather Stations around the globe.

Join Pro

Comparision Forecast

View Surf forecast
   
Mon 04/20 5:50pm 12 23 mph 1017.6mb 73f
4:50pm 17 27 mph 1017.3mb 73f
3:50pm 14 25 mph 1016.9mb 75f
2:50pm 17 29 mph 1017.3mb 73f
1:50pm 14 28 mph 1018mb 73f
12:50pm 17 25 mph 1018.6mb 75f
11:50am 14 25 mph 1019.3mb 75f
10:50am 14 27 mph 1020mb 73f
9:52am 14 23 mph 1020mb 70f
8:54am 17 25 mph 1019.6mb 70f
7:50am 14 23 mph 1019.3mb 70f
6:50am 17 29 mph 1018.6mb 72f
6:03am 14
mph
1018.6mb 72f
Sun 04/19 5:45pm 24 31 mph 1019mb 73f
4:45pm 15 27 mph 1018.6mb 72f
3:45pm 20 33 mph 1018.6mb 77f
2:45pm 23 32 mph 1019mb 77f
1:45pm 20 33 mph 1020mb 77f
12:45pm 17 28 mph 1020.3mb 77f
11:45am 21 29 mph 1021.3mb 79f
10:45am 18 25 mph 1021mb 77f
9:45am 15 21 mph 1021.3mb 73f
8:45am 14 18 mph 1021.3mb 72f
7:45am 17 25 mph 1020.7mb 70f
6:45am 18 22 mph 1020mb 70f
6:00am 14 17 mph 1020mb 68f
Sat 04/18 5:45pm 20 32 mph 1018.6mb 77f
4:45pm 17 32 mph 1018.3mb 77f
3:45pm 22 35 mph 1018.3mb 81f
2:45pm 20 31 mph 1018.6mb 81f
1:45pm 18 37 mph 1019mb 81f
12:45pm 21 33 mph 1019.6mb 81f
11:45am 17 30 mph 1020.3mb 81f
10:45am 18 31 mph 1020.7mb 81f
9:45am 20 32 mph 1020.3mb 79f
8:45am 21 32 mph 1020.3mb 77f
7:45am 16 29 mph 1020mb 75f
6:45am 18 30 mph 1019.3mb 73f
6:00am 16 29 mph 1018.6mb 73f
Fri 04/17 5:45pm 15 18 mph 1016.9mb 77f
4:45pm 17 29 mph 1016.3mb 79f
3:45pm 23 30 mph 1015.9mb 81f
2:45pm 20 29 mph 1016.3mb 81f